createdAt,value
2018-03-25T00:00:06.208Z,62.20
2018-03-25T00:01:06.165Z,62.10
2018-03-25T00:02:08.495Z,62.00
2018-03-25T00:03:05.830Z,62.00
2018-03-25T00:04:08.784Z,61.90
2018-03-25T00:05:06.312Z,61.80
2018-03-25T00:06:11.341Z,61.90
2018-03-25T00:07:06.521Z,61.90
2018-03-25T00:08:08.978Z,62.10
2018-03-25T00:09:05.446Z,62.10
2018-03-25T00:10:10.883Z,62.10
2018-03-25T00:11:06.282Z,62.10
2018-03-25T00:12:11.088Z,62.10
2018-03-25T00:13:06.400Z,62.20
2018-03-25T00:14:08.512Z,62.40
2018-03-25T00:15:06.114Z,62.40
2018-03-25T00:16:08.723Z,62.50
2018-03-25T00:17:06.406Z,62.50
2018-03-25T00:18:06.347Z,62.40
2018-03-25T00:19:08.486Z,62.40
2018-03-25T00:20:08.698Z,62.50
2018-03-25T00:21:11.231Z,62.60
2018-03-25T00:22:06.152Z,62.60
2018-03-25T00:23:05.856Z,62.90
2018-03-25T00:24:08.116Z,62.90
2018-03-25T00:25:08.149Z,62.90
2018-03-25T00:26:05.840Z,62.90
2018-03-25T00:27:05.751Z,63.10
2018-03-25T00:28:05.636Z,63.20
2018-03-25T00:29:05.880Z,63.10
2018-03-25T00:30:05.557Z,63.40
2018-03-25T00:31:06.134Z,63.50
2018-03-25T00:32:08.792Z,63.40
2018-03-25T00:33:06.420Z,63.40
2018-03-25T00:34:08.687Z,64.10
2018-03-25T00:35:11.646Z,64.20
2018-03-25T00:36:06.382Z,64.30
2018-03-25T00:37:06.006Z,64.40
2018-03-25T00:38:05.785Z,64.40
2018-03-25T00:39:05.825Z,64.30
2018-03-25T00:40:08.870Z,64.30
2018-03-25T00:41:06.139Z,64.30
2018-03-25T00:42:05.759Z,64.40
2018-03-25T00:43:11.775Z,64.40
2018-03-25T00:44:13.862Z,64.40
2018-03-25T00:45:05.849Z,64.40
2018-03-25T00:46:05.523Z,64.40
2018-03-25T00:47:06.199Z,64.30
2018-03-25T00:48:05.519Z,64.20
2018-03-25T00:49:06.309Z,64.10
2018-03-25T00:50:06.585Z,64.20
2018-03-25T00:51:06.225Z,64.10
2018-03-25T00:52:06.230Z,64.20
2018-03-25T00:53:06.051Z,64.30
2018-03-25T00:54:05.555Z,64.50
2018-03-25T00:55:09.802Z,64.50
2018-03-25T00:56:06.418Z,64.50
2018-03-25T00:57:05.711Z,64.50
2018-03-25T00:58:11.486Z,64.60
2018-03-25T00:59:06.009Z,64.60
2018-03-25T01:00:06.488Z,64.80
2018-03-25T01:01:11.081Z,64.90
2018-03-25T01:02:10.658Z,64.90
2018-03-25T01:03:06.313Z,64.80
2018-03-25T01:04:10.901Z,65.00
2018-03-25T01:05:09.426Z,65.60
2018-03-25T01:06:08.415Z,65.60
2018-03-25T01:07:05.492Z,65.50
2018-03-25T01:08:08.804Z,65.40
2018-03-25T01:09:11.311Z,65.40
2018-03-25T01:10:08.993Z,65.60
2018-03-25T01:11:08.448Z,66.00
2018-03-25T01:12:06.163Z,66.00
2018-03-25T01:13:06.033Z,66.50
2018-03-25T01:14:05.672Z,66.30
2018-03-25T01:15:05.587Z,66.10
2018-03-25T01:16:05.676Z,66.20
2018-03-25T01:17:13.844Z,66.30
2018-03-25T01:18:06.243Z,66.30
2018-03-25T01:19:09.638Z,66.50
2018-03-25T01:20:08.546Z,66.90
2018-03-25T01:21:09.665Z,67.40
2018-03-25T01:22:06.357Z,67.40
2018-03-25T01:23:06.252Z,67.60
2018-03-25T01:24:06.101Z,67.50
2018-03-25T01:25:08.932Z,16.30
2018-03-25T01:26:08.436Z,67.50
2018-03-25T01:27:08.522Z,67.70
2018-03-25T01:28:08.370Z,67.50
2018-03-25T01:29:05.882Z,67.50
2018-03-25T01:30:05.550Z,67.50
2018-03-25T01:31:06.147Z,67.50
2018-03-25T01:32:06.469Z,67.70
2018-03-25T01:33:11.317Z,68.00
2018-03-25T01:34:11.446Z,68.60
2018-03-25T01:35:09.098Z,68.80
2018-03-25T01:36:05.611Z,68.90
2018-03-25T01:37:10.976Z,68.80
2018-03-25T01:38:08.023Z,68.30
2018-03-25T01:39:05.489Z,68.30
2018-03-25T01:40:05.657Z,68.20
2018-03-25T01:41:06.477Z,68.20
2018-03-25T01:42:09.388Z,68.30
2018-03-25T01:43:06.027Z,68.30
2018-03-25T01:44:06.110Z,68.40
2018-03-25T01:45:06.252Z,68.90
2018-03-25T01:46:10.617Z,69.00
2018-03-25T01:47:09.095Z,69.20
2018-03-25T01:48:05.731Z,69.20
2018-03-25T01:49:05.881Z,69.20
2018-03-25T01:50:06.654Z,69.10
2018-03-25T01:51:09.574Z,68.90
2018-03-25T01:52:06.048Z,68.90
2018-03-25T01:53:08.221Z,68.90
2018-03-25T01:54:08.944Z,68.90
2018-03-25T01:55:06.750Z,68.80
2018-03-25T01:56:06.623Z,68.90
2018-03-25T01:57:06.138Z,68.80
2018-03-25T01:58:11.123Z,68.90
2018-03-25T01:59:06.144Z,68.80
2018-03-25T02:00:06.528Z,69.50
2018-03-25T02:01:06.291Z,69.80
2018-03-25T02:02:09.443Z,69.70
2018-03-25T02:03:10.910Z,69.70
2018-03-25T02:04:09.606Z,69.60
2018-03-25T02:05:11.165Z,69.60
2018-03-25T02:06:05.944Z,69.80
2018-03-25T02:07:05.687Z,69.90
2018-03-25T02:08:10.640Z,69.90
2018-03-25T02:09:06.113Z,69.90
2018-03-25T02:10:06.063Z,69.90
2018-03-25T02:11:05.869Z,70.00
2018-03-25T02:12:05.786Z,69.90
2018-03-25T02:13:06.286Z,69.90
2018-03-25T02:14:05.733Z,70.20
2018-03-25T02:15:06.374Z,70.40
2018-03-25T02:16:10.554Z,70.20
2018-03-25T02:17:05.835Z,70.10
2018-03-25T02:18:06.223Z,70.00
2018-03-25T02:19:05.701Z,70.00
2018-03-25T02:20:08.157Z,70.10
2018-03-25T02:21:15.592Z,70.10
2018-03-25T02:22:11.023Z,70.30
2018-03-25T02:23:06.778Z,70.00
2018-03-25T02:24:05.745Z,70.00
2018-03-25T02:25:05.726Z,70.00
2018-03-25T02:26:07.973Z,69.90
2018-03-25T02:27:08.907Z,69.90
2018-03-25T02:28:06.768Z,69.80
2018-03-25T02:29:05.620Z,70.00
2018-03-25T02:30:06.251Z,70.20
2018-03-25T02:31:08.340Z,70.40
2018-03-25T02:32:06.053Z,70.30
2018-03-25T02:33:09.944Z,70.20
2018-03-25T02:34:05.839Z,70.20
2018-03-25T02:35:11.225Z,70.10
2018-03-25T02:36:05.901Z,70.00
2018-03-25T02:37:06.412Z,70.10
2018-03-25T02:38:05.985Z,70.70
2018-03-25T02:39:09.501Z,70.90
2018-03-25T02:40:06.365Z,70.90
2018-03-25T02:41:06.286Z,70.90
2018-03-25T02:42:06.112Z,70.70
2018-03-25T02:43:06.078Z,70.70
2018-03-25T02:44:06.380Z,70.70
2018-03-25T02:45:06.125Z,70.70
2018-03-25T02:46:06.004Z,70.90
2018-03-25T02:47:09.611Z,70.80
2018-03-25T02:48:06.276Z,70.80
2018-03-25T02:49:06.098Z,70.90
2018-03-25T02:50:13.927Z,71.60
2018-03-25T02:51:09.325Z,71.30
2018-03-25T02:52:06.280Z,71.30
2018-03-25T02:53:05.676Z,71.20
2018-03-25T02:54:06.341Z,71.10
2018-03-25T02:55:09.117Z,71.50
2018-03-25T02:56:08.169Z,71.40
2018-03-25T02:57:05.934Z,71.40
2018-03-25T02:58:08.094Z,71.30
2018-03-25T02:59:05.569Z,71.30
2018-03-25T03:00:06.338Z,71.30
2018-03-25T03:01:05.849Z,71.20
2018-03-25T03:02:10.031Z,71.10
2018-03-25T03:03:08.083Z,71.10
2018-03-25T03:04:05.479Z,71.10
2018-03-25T03:05:08.647Z,71.10
2018-03-25T03:06:13.893Z,71.00
2018-03-25T03:07:08.857Z,71.00
2018-03-25T03:08:08.766Z,71.00
2018-03-25T03:09:11.269Z,71.00
2018-03-25T03:10:08.121Z,71.00
2018-03-25T03:11:11.272Z,70.90
2018-03-25T03:12:10.376Z,71.10
2018-03-25T03:13:06.189Z,71.10
2018-03-25T03:14:06.311Z,71.30
2018-03-25T03:15:05.924Z,71.30
2018-03-25T03:16:11.186Z,71.30
2018-03-25T03:17:08.252Z,71.50
2018-03-25T03:18:05.872Z,71.50
2018-03-25T03:19:06.422Z,71.40
2018-03-25T03:20:10.517Z,71.30
2018-03-25T03:21:07.396Z,71.30
2018-03-25T03:22:05.990Z,71.40
2018-03-25T03:23:06.046Z,71.30
2018-03-25T03:24:09.688Z,71.40
2018-03-25T03:25:11.270Z,71.40
2018-03-25T03:26:11.524Z,71.40
2018-03-25T03:27:08.767Z,72.00
2018-03-25T03:28:06.528Z,72.00
2018-03-25T03:29:06.418Z,71.90
2018-03-25T03:30:05.720Z,71.80
2018-03-25T03:31:06.306Z,71.90
2018-03-25T03:32:06.059Z,72.00
2018-03-25T03:33:06.173Z,72.00
2018-03-25T03:34:06.397Z,71.90
2018-03-25T03:35:10.758Z,71.90
2018-03-25T03:36:11.217Z,71.80
2018-03-25T03:37:06.673Z,71.80
2018-03-25T03:38:11.226Z,71.80
2018-03-25T03:39:06.493Z,71.80
2018-03-25T03:40:06.569Z,71.90
2018-03-25T03:41:08.738Z,72.10
2018-03-25T03:42:06.249Z,72.10
2018-03-25T03:43:06.121Z,72.20
2018-03-25T03:44:06.173Z,72.20
2018-03-25T03:45:06.168Z,72.20
2018-03-25T03:46:09.094Z,72.10
2018-03-25T03:47:05.721Z,72.10
2018-03-25T03:48:06.359Z,72.10
2018-03-25T03:49:11.377Z,72.40
2018-03-25T03:50:08.413Z,72.60
2018-03-25T03:51:06.164Z,72.60
2018-03-25T03:52:06.043Z,72.60
2018-03-25T03:53:06.141Z,72.50
2018-03-25T03:54:06.014Z,72.40
2018-03-25T03:55:06.250Z,72.40
2018-03-25T03:56:07.177Z,72.50
2018-03-25T03:57:09.979Z,72.60
2018-03-25T03:58:06.421Z,72.60
2018-03-25T03:59:08.413Z,72.80
2018-03-25T04:00:08.674Z,72.70
2018-03-25T04:01:08.619Z,72.70
2018-03-25T04:02:05.634Z,72.70
2018-03-25T04:03:06.642Z,72.60
2018-03-25T04:04:06.369Z,72.70
2018-03-25T04:05:05.666Z,72.60
2018-03-25T04:06:06.408Z,72.70
2018-03-25T04:07:06.143Z,72.60
2018-03-25T04:08:16.397Z,72.70
2018-03-25T04:09:05.960Z,72.70
2018-03-25T04:10:05.841Z,72.60
2018-03-25T04:11:06.425Z,72.70
2018-03-25T04:12:08.682Z,72.70
2018-03-25T04:13:08.690Z,72.60
2018-03-25T04:14:11.201Z,72.60
2018-03-25T04:15:10.754Z,72.70
2018-03-25T04:16:06.641Z,72.70
2018-03-25T04:17:05.795Z,72.70
2018-03-25T04:18:08.834Z,72.70
2018-03-25T04:19:06.296Z,72.70
2018-03-25T04:20:05.620Z,73.00
2018-03-25T04:21:06.256Z,73.00
2018-03-25T04:22:05.998Z,73.00
2018-03-25T04:23:08.308Z,72.90
2018-03-25T04:24:08.648Z,72.80
2018-03-25T04:25:14.086Z,72.80
2018-03-25T04:26:10.630Z,72.80
2018-03-25T04:27:10.947Z,72.90
2018-03-25T04:28:09.827Z,72.70
2018-03-25T04:29:06.571Z,72.70
2018-03-25T04:30:08.790Z,72.70
2018-03-25T04:31:08.785Z,72.60
2018-03-25T04:32:11.309Z,72.60
2018-03-25T04:33:06.354Z,72.60
2018-03-25T04:34:06.140Z,72.50
2018-03-25T04:35:06.062Z,72.50
2018-03-25T04:36:06.383Z,72.50
2018-03-25T04:37:08.147Z,72.50
2018-03-25T04:38:06.339Z,72.50
2018-03-25T04:39:09.312Z,72.40
2018-03-25T04:40:06.192Z,72.50
2018-03-25T04:41:05.743Z,72.50
2018-03-25T04:42:11.510Z,72.50
2018-03-25T04:43:10.934Z,72.40
2018-03-25T04:44:06.335Z,72.30
2018-03-25T04:45:11.191Z,72.30
2018-03-25T04:46:10.682Z,72.60
2018-03-25T04:47:10.624Z,72.70
2018-03-25T04:48:05.925Z,72.70
2018-03-25T04:49:06.303Z,72.70
2018-03-25T04:50:08.582Z,72.80
2018-03-25T04:51:06.225Z,72.80
2018-03-25T04:52:05.764Z,72.80
2018-03-25T04:53:06.308Z,73.00
2018-03-25T04:54:06.693Z,72.90
2018-03-25T04:55:06.546Z,73.10
2018-03-25T04:56:11.162Z,73.20
2018-03-25T04:57:05.920Z,73.20
2018-03-25T04:58:08.761Z,73.20
2018-03-25T04:59:11.318Z,73.10
2018-03-25T05:00:05.676Z,73.20
2018-03-25T05:01:08.807Z,73.00
2018-03-25T05:02:06.518Z,73.10
2018-03-25T05:03:08.717Z,73.10
2018-03-25T05:04:11.147Z,73.00
2018-03-25T05:05:08.065Z,73.10
2018-03-25T05:06:10.626Z,73.10
2018-03-25T05:07:10.895Z,73.00
2018-03-25T05:08:06.400Z,73.00
2018-03-25T05:09:06.602Z,73.10
2018-03-25T05:10:08.793Z,73.10
2018-03-25T05:11:07.234Z,73.00
2018-03-25T05:12:06.589Z,73.00
2018-03-25T05:13:05.709Z,73.20
2018-03-25T05:14:09.613Z,74.00
2018-03-25T05:15:06.045Z,74.00
2018-03-25T05:16:11.452Z,74.20
2018-03-25T05:17:05.884Z,74.20
2018-03-25T05:18:06.001Z,74.20
2018-03-25T05:19:11.412Z,74.10
2018-03-25T05:20:06.455Z,74.10
2018-03-25T05:21:06.022Z,74.10
2018-03-25T05:22:05.833Z,74.10
2018-03-25T05:23:08.492Z,74.10
2018-03-25T05:24:08.552Z,74.00
2018-03-25T05:25:06.296Z,74.00
2018-03-25T05:26:09.135Z,74.00
2018-03-25T05:27:13.257Z,74.00
2018-03-25T05:28:10.765Z,74.10
2018-03-25T05:29:05.772Z,74.00
2018-03-25T05:30:06.845Z,74.00
2018-03-25T05:31:06.378Z,74.00
2018-03-25T05:32:05.982Z,74.00
2018-03-25T05:33:05.594Z,74.00
2018-03-25T05:34:06.481Z,73.90
2018-03-25T05:35:06.343Z,73.80
2018-03-25T05:36:05.632Z,73.90
2018-03-25T05:37:05.901Z,73.90
2018-03-25T05:38:05.450Z,73.90
2018-03-25T05:39:06.010Z,73.90
2018-03-25T05:40:06.270Z,73.90
2018-03-25T05:41:05.885Z,74.10
2018-03-25T05:42:05.961Z,74.10
2018-03-25T05:43:05.828Z,74.00
2018-03-25T05:44:14.046Z,74.20
2018-03-25T05:45:05.466Z,74.10
2018-03-25T05:46:05.804Z,74.20
2018-03-25T05:47:09.090Z,74.40
2018-03-25T05:48:05.883Z,74.40
2018-03-25T05:49:08.117Z,74.60
2018-03-25T05:50:05.829Z,74.60
2018-03-25T05:51:06.431Z,74.50
2018-03-25T05:52:06.159Z,74.50
2018-03-25T05:53:09.871Z,74.30
2018-03-25T05:54:06.650Z,74.40
2018-03-25T05:55:05.569Z,74.30
2018-03-25T05:56:08.420Z,74.10
2018-03-25T05:57:09.462Z,73.80
2018-03-25T05:58:06.093Z,73.80
2018-03-25T05:59:09.700Z,73.40
2018-03-25T06:00:11.364Z,73.40
2018-03-25T06:01:08.320Z,73.60
2018-03-25T06:02:10.882Z,73.60
2018-03-25T06:03:06.541Z,73.60
2018-03-25T06:04:06.202Z,73.50
2018-03-25T06:05:10.303Z,73.30
2018-03-25T06:06:05.775Z,73.30
2018-03-25T06:07:11.289Z,73.10
2018-03-25T06:08:10.770Z,73.00
2018-03-25T06:09:09.602Z,72.20
2018-03-25T06:10:06.352Z,72.30
2018-03-25T06:11:06.474Z,72.00
2018-03-25T06:12:08.851Z,71.90
2018-03-25T06:13:06.504Z,71.90
2018-03-25T06:14:06.342Z,71.80
2018-03-25T06:15:08.614Z,71.50
2018-03-25T06:16:11.303Z,71.50
2018-03-25T06:17:05.921Z,71.40
2018-03-25T06:18:10.600Z,71.10
2018-03-25T06:19:05.764Z,70.90
2018-03-25T06:20:06.728Z,70.80
2018-03-25T06:21:08.883Z,70.40
2018-03-25T06:22:06.436Z,70.40
2018-03-25T06:23:06.245Z,70.10
2018-03-25T06:24:08.332Z,69.50
2018-03-25T06:25:05.943Z,69.50
2018-03-25T06:26:10.652Z,68.70
2018-03-25T06:27:06.405Z,68.60
2018-03-25T06:28:11.067Z,68.30
2018-03-25T06:29:06.377Z,67.90
2018-03-25T06:30:08.924Z,67.10
2018-03-25T06:31:05.574Z,67.00
2018-03-25T06:32:11.074Z,66.70
2018-03-25T06:33:05.990Z,66.10
2018-03-25T06:34:06.819Z,65.90
2018-03-25T06:35:06.498Z,65.60
2018-03-25T06:36:06.095Z,65.10
2018-03-25T06:37:06.262Z,65.00
2018-03-25T06:38:09.021Z,64.10
2018-03-25T06:39:08.762Z,64.10
2018-03-25T06:40:13.868Z,63.70
2018-03-25T06:41:06.507Z,63.70
2018-03-25T06:42:06.278Z,63.40
2018-03-25T06:43:09.050Z,62.50
2018-03-25T06:44:08.100Z,62.00
2018-03-25T06:45:05.793Z,61.90
2018-03-25T06:46:11.529Z,61.50
2018-03-25T06:47:10.945Z,61.50
2018-03-25T06:48:08.809Z,60.90
2018-03-25T06:49:06.270Z,60.90
2018-03-25T06:50:11.872Z,60.50
2018-03-25T06:51:11.106Z,60.00
2018-03-25T06:52:06.414Z,59.90
2018-03-25T06:53:05.509Z,59.50
2018-03-25T06:54:10.509Z,58.80
2018-03-25T06:55:06.112Z,58.40
2018-03-25T06:56:13.503Z,58.00
2018-03-25T06:57:06.004Z,57.90
2018-03-25T06:58:06.404Z,57.50
2018-03-25T06:59:11.459Z,56.70
2018-03-25T07:00:05.941Z,56.70
2018-03-25T07:01:05.651Z,56.80
2018-03-25T07:02:08.020Z,56.60
2018-03-25T07:03:06.431Z,56.60
2018-03-25T07:04:11.266Z,56.20
2018-03-25T07:05:06.600Z,56.20
2018-03-25T07:06:08.926Z,56.00
2018-03-25T07:07:06.501Z,56.10
2018-03-25T07:08:05.497Z,55.80
2018-03-25T07:09:06.171Z,55.60
2018-03-25T07:10:06.033Z,55.30
2018-03-25T07:11:05.834Z,55.20
2018-03-25T07:12:08.791Z,54.50
2018-03-25T07:13:06.208Z,54.50
2018-03-25T07:14:08.807Z,54.20
2018-03-25T07:15:08.877Z,54.00
2018-03-25T07:16:06.396Z,53.90
2018-03-25T07:17:06.181Z,53.70
2018-03-25T07:18:09.152Z,52.80
2018-03-25T07:19:08.191Z,53.00
2018-03-25T07:20:08.161Z,52.90
2018-03-25T07:21:05.810Z,52.90
2018-03-25T07:22:06.444Z,52.70
2018-03-25T07:23:05.923Z,53.00
2018-03-25T07:24:06.353Z,52.60
2018-03-25T07:25:05.773Z,52.70
2018-03-25T07:26:09.335Z,51.90
2018-03-25T07:27:08.519Z,52.00
2018-03-25T07:28:06.083Z,52.00
2018-03-25T07:29:05.482Z,51.90
2018-03-25T07:30:05.693Z,52.10
2018-03-25T07:31:10.401Z,51.50
2018-03-25T07:32:05.742Z,51.50
2018-03-25T07:33:09.677Z,51.90
2018-03-25T07:34:06.099Z,51.90
2018-03-25T07:35:05.604Z,52.00
2018-03-25T07:36:06.262Z,51.40
2018-03-25T07:37:08.519Z,51.90
2018-03-25T07:38:06.256Z,52.00
2018-03-25T07:39:08.915Z,51.80
2018-03-25T07:40:08.849Z,51.80
2018-03-25T07:41:06.638Z,51.80
2018-03-25T07:42:06.244Z,51.60
2018-03-25T07:43:05.448Z,51.50
2018-03-25T07:44:11.368Z,51.60
2018-03-25T07:45:08.550Z,51.40
2018-03-25T07:46:05.978Z,51.40
2018-03-25T07:47:08.179Z,51.40
2018-03-25T07:48:08.203Z,51.30
2018-03-25T07:49:06.379Z,51.30
2018-03-25T07:50:06.915Z,51.50
2018-03-25T07:51:08.949Z,51.30
2018-03-25T07:52:10.039Z,51.20
2018-03-25T07:53:05.662Z,51.20
2018-03-25T07:54:07.231Z,50.70
2018-03-25T07:55:11.157Z,50.80
2018-03-25T07:56:08.765Z,50.90
2018-03-25T07:57:06.396Z,50.90
2018-03-25T07:58:09.570Z,51.20
2018-03-25T07:59:06.128Z,51.30
2018-03-25T08:00:05.911Z,51.40
2018-03-25T08:01:06.629Z,51.00
2018-03-25T08:02:06.178Z,51.20
2018-03-25T08:03:06.957Z,51.30
2018-03-25T08:04:05.532Z,51.30
2018-03-25T08:05:06.347Z,51.00
2018-03-25T08:06:06.453Z,51.00
2018-03-25T08:07:08.904Z,50.90
2018-03-25T08:08:06.581Z,51.10
2018-03-25T08:09:06.391Z,51.10
2018-03-25T08:10:08.886Z,51.10
2018-03-25T08:11:07.138Z,51.00
2018-03-25T08:12:05.761Z,50.90
2018-03-25T08:13:06.469Z,51.00
2018-03-25T08:14:09.548Z,51.10
2018-03-25T08:15:11.024Z,51.10
2018-03-25T08:16:11.208Z,51.10
2018-03-25T08:17:09.866Z,51.10
2018-03-25T08:18:06.479Z,51.00
2018-03-25T08:19:08.562Z,50.60
2018-03-25T08:20:06.047Z,50.60
2018-03-25T08:21:08.239Z,50.40
2018-03-25T08:22:08.134Z,50.20
2018-03-25T08:23:05.581Z,50.40
2018-03-25T08:24:05.576Z,50.30
2018-03-25T08:25:06.473Z,50.10
2018-03-25T08:26:08.873Z,50.20
2018-03-25T08:27:08.900Z,50.00
2018-03-25T08:28:05.447Z,50.10
2018-03-25T08:29:06.256Z,50.00
2018-03-25T08:30:05.640Z,49.90
2018-03-25T08:31:06.153Z,49.80
2018-03-25T08:32:15.892Z,49.80
2018-03-25T08:33:09.022Z,49.90
2018-03-25T08:34:08.017Z,49.80
2018-03-25T08:35:06.526Z,49.80
2018-03-25T08:36:06.158Z,49.20
2018-03-25T08:37:05.804Z,49.20
2018-03-25T08:38:08.139Z,49.20
2018-03-25T08:39:05.622Z,49.20
2018-03-25T08:40:11.097Z,49.40
2018-03-25T08:41:09.771Z,48.90
2018-03-25T08:42:06.512Z,48.90
2018-03-25T08:43:06.656Z,48.50
2018-03-25T08:44:06.557Z,48.20
2018-03-25T08:45:09.260Z,47.80
2018-03-25T08:46:11.160Z,47.80
2018-03-25T08:47:05.455Z,47.50
2018-03-25T08:48:10.713Z,47.10
2018-03-25T08:49:06.635Z,47.10
2018-03-25T08:50:06.215Z,47.10
2018-03-25T08:51:09.995Z,46.90
2018-03-25T08:52:08.316Z,46.90
2018-03-25T08:53:05.839Z,46.90
2018-03-25T08:54:06.604Z,46.70
2018-03-25T08:55:11.519Z,46.50
2018-03-25T08:56:06.050Z,46.50
2018-03-25T08:57:10.907Z,46.20
2018-03-25T08:58:08.709Z,45.30
2018-03-25T08:59:08.932Z,45.70
2018-03-25T09:00:11.038Z,45.70
2018-03-25T09:01:10.990Z,45.30
2018-03-25T09:02:06.819Z,45.30
2018-03-25T09:03:06.476Z,45.50
2018-03-25T09:04:08.902Z,45.10
2018-03-25T09:05:06.572Z,45.10
2018-03-25T09:06:11.394Z,44.80
2018-03-25T09:07:06.191Z,44.70
2018-03-25T09:08:05.687Z,44.50
2018-03-25T09:09:09.046Z,44.50
2018-03-25T09:10:05.439Z,44.40
2018-03-25T09:11:06.085Z,44.30
2018-03-25T09:12:08.488Z,44.90
2018-03-25T09:13:11.026Z,44.90
2018-03-25T09:14:06.295Z,44.70
2018-03-25T09:15:08.803Z,44.40
2018-03-25T09:16:08.750Z,44.40
2018-03-25T09:17:06.315Z,44.50
2018-03-25T09:18:11.172Z,44.10
2018-03-25T09:19:08.813Z,44.30
2018-03-25T09:20:06.376Z,44.40
2018-03-25T09:21:06.194Z,44.10
2018-03-25T09:22:06.028Z,44.20
2018-03-25T09:23:05.945Z,44.10
2018-03-25T09:24:06.117Z,44.10
2018-03-25T09:25:09.419Z,43.80
2018-03-25T09:26:06.023Z,43.80
2018-03-25T09:27:10.503Z,43.80
2018-03-25T09:28:05.675Z,42.60
2018-03-25T09:29:05.961Z,43.10
2018-03-25T09:30:15.753Z,43.40
2018-03-25T09:31:06.166Z,43.40
2018-03-25T09:32:09.213Z,43.00
2018-03-25T09:33:05.991Z,43.00
2018-03-25T09:34:05.827Z,42.50
2018-03-25T09:35:10.383Z,42.20
2018-03-25T09:36:06.560Z,42.20
2018-03-25T09:37:08.652Z,42.30
2018-03-25T09:38:11.113Z,42.30
2018-03-25T09:39:05.574Z,42.30
2018-03-25T09:40:11.399Z,42.50
2018-03-25T09:41:05.834Z,42.20
2018-03-25T09:42:06.016Z,42.60
2018-03-25T09:43:05.939Z,42.30
2018-03-25T09:44:06.207Z,42.50
2018-03-25T09:45:08.341Z,41.20
2018-03-25T09:46:05.527Z,41.20
2018-03-25T09:47:05.977Z,41.70
2018-03-25T09:48:08.376Z,42.00
2018-03-25T09:49:08.386Z,41.50
2018-03-25T09:50:05.998Z,41.50
2018-03-25T09:51:05.808Z,41.10
2018-03-25T09:52:05.833Z,40.80
2018-03-25T09:53:06.428Z,40.20
2018-03-25T09:54:05.607Z,39.00
2018-03-25T09:55:08.639Z,39.50
2018-03-25T09:56:09.511Z,39.60
2018-03-25T09:57:06.133Z,39.70
2018-03-25T09:58:05.781Z,40.10
2018-03-25T09:59:05.796Z,40.10
2018-03-25T10:00:10.756Z,40.10
2018-03-25T10:01:06.604Z,40.10
2018-03-25T10:02:10.689Z,39.80
2018-03-25T10:03:13.509Z,39.70
2018-03-25T10:04:06.104Z,39.60
2018-03-25T10:05:08.743Z,39.10
2018-03-25T10:06:06.447Z,39.00
2018-03-25T10:07:05.631Z,38.50
2018-03-25T10:08:10.596Z,38.70
2018-03-25T10:09:08.731Z,38.60
2018-03-25T10:10:11.295Z,38.40
2018-03-25T10:11:06.169Z,38.40
2018-03-25T10:12:08.423Z,37.50
2018-03-25T10:13:06.064Z,37.50
2018-03-25T10:14:08.673Z,37.90
2018-03-25T10:15:06.505Z,37.90
2018-03-25T10:16:08.785Z,37.30
2018-03-25T10:17:06.455Z,37.30
2018-03-25T10:18:06.289Z,37.40
2018-03-25T10:19:11.162Z,37.90
2018-03-25T10:20:13.300Z,37.20
2018-03-25T10:21:08.309Z,37.40
2018-03-25T10:22:05.902Z,37.40
2018-03-25T10:23:05.975Z,37.50
2018-03-25T10:24:06.127Z,37.70
2018-03-25T10:25:05.716Z,37.20
2018-03-25T10:26:11.339Z,37.40
2018-03-25T10:27:10.500Z,37.40
2018-03-25T10:28:05.691Z,37.50
2018-03-25T10:29:05.583Z,37.60
2018-03-25T10:30:05.662Z,37.50
2018-03-25T10:31:06.236Z,37.40
2018-03-25T10:32:08.595Z,36.80
2018-03-25T10:33:06.073Z,36.80
2018-03-25T10:34:10.555Z,37.00
2018-03-25T10:35:05.886Z,37.40
2018-03-25T10:36:05.724Z,37.40
2018-03-25T10:37:06.089Z,37.60
2018-03-25T10:38:06.063Z,37.70
2018-03-25T10:39:11.515Z,37.90
2018-03-25T10:40:05.988Z,37.20
2018-03-25T10:41:11.571Z,36.50
2018-03-25T10:42:08.385Z,36.50
2018-03-25T10:43:09.163Z,36.50
2018-03-25T10:44:08.857Z,36.70
2018-03-25T10:45:06.459Z,36.70
2018-03-25T10:46:08.770Z,37.00
2018-03-25T10:47:11.379Z,36.60
2018-03-25T10:48:05.972Z,36.60
2018-03-25T10:49:06.184Z,36.40
2018-03-25T10:50:06.147Z,36.50
2018-03-25T10:51:11.675Z,36.50
2018-03-25T10:52:06.569Z,36.80
2018-03-25T10:53:11.377Z,37.20
2018-03-25T10:54:05.845Z,37.30
2018-03-25T10:55:05.435Z,37.20
2018-03-25T10:56:09.438Z,36.90
2018-03-25T10:57:10.679Z,36.90
2018-03-25T10:58:05.782Z,36.90
2018-03-25T10:59:05.720Z,36.40
2018-03-25T11:00:06.039Z,36.40
2018-03-25T11:01:05.733Z,36.50
2018-03-25T11:02:08.833Z,36.80
2018-03-25T11:03:09.666Z,36.70
2018-03-25T11:04:06.157Z,36.70
2018-03-25T11:05:10.895Z,35.80
2018-03-25T11:06:06.153Z,36.30
2018-03-25T11:07:10.536Z,36.70
2018-03-25T11:08:09.385Z,36.70
2018-03-25T11:09:08.424Z,36.90
2018-03-25T11:10:05.932Z,36.90
2018-03-25T11:11:05.615Z,37.00
2018-03-25T11:12:06.278Z,36.80
2018-03-25T11:13:09.390Z,36.20
2018-03-25T11:14:09.238Z,36.20
2018-03-25T11:15:05.699Z,36.10
2018-03-25T11:16:08.283Z,35.70
2018-03-25T11:17:08.403Z,35.70
2018-03-25T11:18:05.899Z,35.80
2018-03-25T11:19:05.468Z,36.30
2018-03-25T11:20:11.486Z,36.50
2018-03-25T11:21:05.961Z,36.50
2018-03-25T11:22:11.209Z,35.00
2018-03-25T11:23:06.354Z,35.10
2018-03-25T11:24:06.131Z,34.60
2018-03-25T11:25:06.050Z,34.60
2018-03-25T11:26:09.181Z,35.40
2018-03-25T11:27:08.214Z,35.30
2018-03-25T11:28:06.428Z,35.30
2018-03-25T11:29:13.563Z,35.50
2018-03-25T11:30:08.499Z,35.70
2018-03-25T11:31:05.891Z,35.70
2018-03-25T11:32:08.012Z,35.70
2018-03-25T11:33:06.600Z,35.60
2018-03-25T11:34:11.341Z,36.20
2018-03-25T11:35:08.261Z,36.20
2018-03-25T11:36:09.300Z,36.30
2018-03-25T11:37:10.551Z,36.40
2018-03-25T11:38:11.140Z,36.00
2018-03-25T11:39:08.898Z,35.70
2018-03-25T11:40:06.621Z,35.70
2018-03-25T11:41:11.268Z,35.60
2018-03-25T11:42:10.784Z,35.10
2018-03-25T11:43:06.400Z,35.00
2018-03-25T11:44:06.051Z,35.10
2018-03-25T11:45:09.615Z,34.70
2018-03-25T11:46:06.393Z,34.70
2018-03-25T11:47:06.067Z,34.40
2018-03-25T11:48:06.177Z,34.80
2018-03-25T11:49:09.887Z,35.30
2018-03-25T11:50:06.103Z,35.30
2018-03-25T11:51:05.774Z,35.20
2018-03-25T11:52:05.839Z,35.30
2018-03-25T11:53:05.753Z,35.20
2018-03-25T11:54:06.159Z,35.00
2018-03-25T11:55:06.321Z,35.30
2018-03-25T11:56:05.659Z,35.20
2018-03-25T11:57:06.156Z,34.60
2018-03-25T11:58:10.883Z,34.90
2018-03-25T11:59:09.435Z,34.80
2018-03-25T12:00:06.272Z,34.90
2018-03-25T12:01:06.374Z,34.50
2018-03-25T12:02:11.185Z,34.50
2018-03-25T12:03:11.379Z,34.50
2018-03-25T12:04:06.629Z,34.50
2018-03-25T12:05:06.530Z,34.70
2018-03-25T12:06:11.465Z,35.10
2018-03-25T12:07:10.916Z,35.40
2018-03-25T12:08:06.320Z,35.40
2018-03-25T12:09:11.049Z,35.40
2018-03-25T12:10:10.582Z,35.40
2018-03-25T12:11:06.779Z,34.10
2018-03-25T12:12:11.304Z,34.70
2018-03-25T12:13:11.539Z,34.60
2018-03-25T12:14:05.687Z,34.60
2018-03-25T12:15:06.337Z,34.60
2018-03-25T12:16:10.731Z,34.30
2018-03-25T12:17:05.902Z,33.40
2018-03-25T12:18:08.125Z,33.50
2018-03-25T12:19:06.237Z,33.50
2018-03-25T12:20:06.169Z,33.90
2018-03-25T12:21:05.670Z,34.20
2018-03-25T12:22:05.818Z,34.30
2018-03-25T12:23:10.871Z,34.30
2018-03-25T12:24:06.067Z,34.30
2018-03-25T12:25:16.083Z,34.70
2018-03-25T12:26:05.465Z,34.60
2018-03-25T12:27:11.072Z,34.80
2018-03-25T12:28:06.208Z,34.60
2018-03-25T12:29:10.190Z,34.30
2018-03-25T12:30:11.508Z,34.30
2018-03-25T12:31:06.082Z,33.90
2018-03-25T12:32:05.760Z,34.00
2018-03-25T12:33:13.172Z,34.60
2018-03-25T12:34:05.679Z,34.60
2018-03-25T12:35:06.420Z,34.50
2018-03-25T12:36:10.730Z,34.30
2018-03-25T12:37:05.893Z,34.50
2018-03-25T12:38:08.513Z,35.00
2018-03-25T12:39:09.308Z,35.10
2018-03-25T12:40:05.867Z,35.10
2018-03-25T12:41:06.372Z,34.90
2018-03-25T12:42:05.678Z,35.00
2018-03-25T12:43:09.416Z,34.60
2018-03-25T12:44:06.271Z,34.60
2018-03-25T12:45:10.881Z,34.20
2018-03-25T12:46:08.803Z,34.30
2018-03-25T12:47:11.427Z,34.20
2018-03-25T12:48:08.629Z,34.10
2018-03-25T12:49:06.337Z,34.10
2018-03-25T12:50:06.167Z,34.10
2018-03-25T12:51:08.261Z,33.80
2018-03-25T12:52:06.252Z,33.80